createdAt,value
2019-04-16T00:02:29.337Z,4.70
2019-04-16T00:05:14.184Z,4.70
2019-04-16T00:08:26.698Z,4.60
2019-04-16T00:11:13.583Z,4.60
2019-04-16T00:13:55.313Z,4.50
2019-04-16T00:16:32.774Z,4.50
2019-04-16T00:19:10.287Z,4.40
2019-04-16T00:22:03.562Z,4.40
2019-04-16T00:24:44.019Z,4.40
2019-04-16T00:27:21.532Z,4.30
2019-04-16T00:30:03.943Z,4.30
2019-04-16T00:32:40.982Z,4.30
2019-04-16T00:35:16.403Z,4.30
2019-04-16T00:37:53.577Z,4.30
2019-04-16T00:40:31.054Z,4.30
2019-04-16T00:43:08.566Z,4.30
2019-04-16T00:45:46.048Z,4.30
2019-04-16T00:48:23.575Z,4.20
2019-04-16T00:51:01.083Z,4.20
2019-04-16T00:53:39.203Z,4.20
2019-04-16T00:56:16.815Z,4.10
2019-04-16T00:58:53.569Z,4.10
2019-04-16T01:01:31.042Z,4.10
2019-04-16T01:04:09.045Z,4.10
2019-04-16T01:06:46.046Z,4.10
2019-04-16T01:09:23.546Z,4.00
2019-04-16T01:12:01.045Z,4.00
2019-04-16T01:14:38.555Z,4.00
2019-04-16T01:17:16.025Z,4.00
2019-04-16T01:19:53.519Z,4.00
2019-04-16T01:22:31.005Z,4.00
2019-04-16T01:25:08.623Z,3.90
2019-04-16T01:27:49.320Z,3.90
2019-04-16T01:30:37.222Z,3.90
2019-04-16T01:33:19.382Z,3.80
2019-04-16T01:36:15.471Z,3.80
2019-04-16T01:39:13.406Z,3.70
2019-04-16T01:41:33.962Z,3.60
2019-04-16T01:44:11.468Z,3.50
2019-04-16T01:46:48.940Z,3.40
2019-04-16T01:49:26.428Z,3.20
2019-04-16T01:52:03.914Z,3.10
2019-04-16T01:54:41.465Z,3.00
2019-04-16T01:57:18.928Z,3.00
2019-04-16T01:59:56.447Z,3.00
2019-04-16T02:02:33.910Z,2.90
2019-04-16T02:05:11.691Z,2.90
2019-04-16T02:07:48.913Z,2.80
2019-04-16T02:10:26.412Z,2.80
2019-04-16T02:13:03.887Z,2.70
2019-04-16T02:15:41.391Z,2.70
2019-04-16T02:18:18.749Z,2.70
2019-04-16T02:20:56.252Z,2.70
2019-04-16T02:23:33.733Z,2.70
2019-04-16T02:26:11.233Z,2.70
2019-04-16T02:28:48.792Z,2.70
2019-04-16T02:31:26.325Z,2.60
2019-04-16T02:34:03.813Z,2.60
2019-04-16T02:36:41.327Z,2.50
2019-04-16T02:39:25.443Z,2.50
2019-04-16T02:41:58.177Z,2.50
2019-04-16T02:44:33.782Z,2.50
2019-04-16T02:47:11.376Z,2.50
2019-04-16T02:49:48.765Z,2.50
2019-04-16T02:52:36.687Z,2.60
2019-04-16T02:55:23.295Z,2.50
2019-04-16T02:58:04.749Z,2.60
2019-04-16T03:00:55.677Z,2.60
2019-04-16T03:03:56.239Z,2.60
2019-04-16T03:06:32.580Z,2.60
2019-04-16T03:09:10.251Z,2.50
2019-04-16T03:11:48.939Z,2.40
2019-04-16T03:14:29.697Z,2.30
2019-04-16T03:17:30.368Z,2.20
2019-04-16T03:20:08.883Z,2.10
2019-04-16T03:22:46.437Z,2.00
2019-04-16T03:25:23.908Z,2.00
2019-04-16T03:28:01.422Z,2.00
2019-04-16T03:30:42.404Z,2.00
2019-04-16T03:33:16.597Z,2.00
2019-04-16T03:35:57.593Z,2.00
2019-04-16T03:38:31.365Z,2.00
2019-04-16T03:41:08.874Z,2.00
2019-04-16T03:43:46.368Z,1.90
2019-04-16T03:46:23.867Z,1.80
2019-04-16T03:49:01.353Z,1.80
2019-04-16T03:51:38.861Z,1.70
2019-04-16T03:54:18.815Z,1.70
2019-04-16T03:56:53.864Z,1.60
2019-04-16T03:59:31.371Z,1.50
2019-04-16T04:02:08.874Z,1.50
2019-04-16T04:04:46.353Z,1.50
2019-04-16T04:07:23.879Z,1.40
2019-04-16T04:10:02.065Z,1.40
2019-04-16T04:12:39.571Z,1.30
2019-04-16T04:15:17.226Z,1.30
2019-04-16T04:17:54.549Z,1.20
2019-04-16T04:20:32.040Z,1.20
2019-04-16T04:23:09.565Z,1.10
2019-04-16T04:25:47.065Z,1.10
2019-04-16T04:28:24.591Z,1.10
2019-04-16T04:31:02.146Z,1.10
2019-04-16T04:33:42.599Z,1.10
2019-04-16T04:36:18.944Z,1.10
2019-04-16T04:38:54.678Z,1.20
2019-04-16T04:41:32.154Z,1.20
2019-04-16T04:44:09.854Z,1.20
2019-04-16T04:46:47.161Z,1.30
2019-04-16T04:49:29.929Z,1.30
2019-04-16T04:52:02.198Z,1.40
2019-04-16T04:54:39.735Z,1.40
2019-04-16T04:57:17.242Z,1.50
2019-04-16T04:59:54.800Z,1.60
2019-04-16T05:02:32.273Z,1.60
2019-04-16T05:05:25.592Z,1.70
2019-04-16T05:08:01.238Z,1.80
2019-04-16T05:10:42.773Z,1.90
2019-04-16T05:13:16.225Z,2.00
2019-04-16T05:15:53.712Z,2.00
2019-04-16T05:18:31.273Z,2.10
2019-04-16T05:21:08.743Z,2.20
2019-04-16T05:23:46.262Z,2.30
2019-04-16T05:26:23.761Z,2.40
2019-04-16T05:29:16.047Z,2.50
2019-04-16T05:31:49.203Z,2.60
2019-04-16T05:34:26.720Z,2.70
2019-04-16T05:37:04.244Z,2.80
2019-04-16T05:39:41.771Z,3.00
2019-04-16T05:42:19.381Z,3.10
2019-04-16T05:44:56.862Z,3.20
2019-04-16T05:47:34.354Z,3.30
2019-04-16T05:50:11.819Z,3.40
2019-04-16T05:52:49.309Z,3.50
2019-04-16T05:55:34.587Z,3.60
2019-04-16T05:58:12.127Z,3.70
2019-04-16T06:01:10.484Z,3.80
2019-04-16T06:03:45.742Z,3.90
2019-04-16T06:06:23.255Z,4.00
2019-04-16T06:09:00.770Z,4.00
2019-04-16T06:11:38.256Z,4.10
2019-04-16T06:14:21.022Z,4.30
2019-04-16T06:17:17.109Z,4.30
2019-04-16T06:20:00.871Z,4.50
2019-04-16T06:23:01.001Z,4.50
2019-04-16T06:25:56.358Z,4.70
2019-04-16T06:28:56.348Z,4.80
2019-04-16T06:31:44.789Z,4.90
2019-04-16T06:34:43.134Z,5.00
2019-04-16T06:37:27.468Z,5.10
2019-04-16T06:40:11.390Z,5.20
2019-04-16T06:42:56.749Z,5.30
2019-04-16T06:45:42.607Z,5.40
2019-04-16T06:48:25.700Z,5.50
2019-04-16T06:51:22.315Z,5.70
2019-04-16T06:54:18.436Z,5.80
2019-04-16T06:57:14.776Z,5.90
2019-04-16T07:00:20.805Z,6.00
2019-04-16T07:03:16.912Z,6.20
2019-04-16T07:06:19.405Z,6.30
2019-04-16T07:09:12.418Z,6.40
2019-04-16T07:11:54.667Z,6.60
2019-04-16T07:14:28.433Z,6.70
2019-04-16T07:17:05.953Z,6.80
2019-04-16T07:19:43.429Z,6.90
2019-04-16T07:22:22.031Z,7.00
2019-04-16T07:25:03.925Z,7.10
2019-04-16T07:27:44.735Z,7.20
2019-04-16T07:30:40.615Z,7.30
2019-04-16T07:33:39.184Z,7.50
2019-04-16T07:36:30.528Z,7.60
2019-04-16T07:39:28.811Z,7.70
2019-04-16T07:42:12.086Z,7.80
2019-04-16T07:44:57.894Z,8.00
2019-04-16T07:48:13.511Z,8.10
2019-04-16T07:51:19.699Z,8.20
2019-04-16T07:54:18.640Z,8.40
2019-04-16T07:56:54.315Z,8.60
2019-04-16T07:59:32.846Z,8.80
2019-04-16T08:02:09.342Z,9.00
2019-04-16T08:04:46.813Z,9.10
2019-04-16T08:07:24.311Z,9.30
2019-04-16T08:10:02.957Z,9.50
2019-04-16T08:12:42.071Z,9.70
2019-04-16T08:15:16.764Z,9.90
2019-04-16T08:17:54.273Z,10.10
2019-04-16T08:20:31.737Z,10.20
2019-04-16T08:23:27.843Z,10.40
2019-04-16T08:26:11.344Z,10.60
2019-04-16T08:28:43.539Z,10.80
2019-04-16T08:31:24.098Z,10.90
2019-04-16T08:34:01.601Z,11.10
2019-04-16T08:36:39.097Z,11.20
2019-04-16T08:39:17.015Z,11.30
2019-04-16T08:41:54.515Z,11.50
2019-04-16T08:44:35.304Z,11.60
2019-04-16T08:47:12.118Z,11.80
2019-04-16T08:49:47.018Z,11.90
2019-04-16T08:52:24.512Z,12.10
2019-04-16T08:55:02.010Z,12.20
2019-04-16T08:57:39.493Z,12.30
2019-04-16T09:00:16.973Z,12.30
2019-04-16T09:02:57.615Z,12.50
2019-04-16T09:05:31.968Z,12.60
2019-04-16T09:08:21.980Z,12.70
2019-04-16T09:10:56.842Z,12.80
2019-04-16T09:13:40.911Z,12.90
2019-04-16T09:16:15.006Z,13.00
2019-04-16T09:19:00.578Z,13.20
2019-04-16T09:21:43.422Z,13.30
2019-04-16T09:24:21.666Z,13.40
2019-04-16T09:27:20.920Z,13.50
2019-04-16T09:30:17.973Z,13.70
2019-04-16T09:33:00.958Z,13.80
2019-04-16T09:35:55.238Z,13.90
2019-04-16T09:38:46.424Z,14.00
2019-04-16T09:41:28.572Z,14.10
2019-04-16T09:44:06.070Z,14.20
2019-04-16T09:46:51.096Z,14.30
2019-04-16T09:49:21.093Z,14.40
2019-04-16T09:51:58.571Z,14.50
2019-04-16T09:54:36.055Z,14.60
2019-04-16T09:57:13.707Z,14.70
2019-04-16T10:00:00.640Z,14.90
2019-04-16T10:02:38.823Z,15.00
2019-04-16T10:05:16.324Z,15.10
2019-04-16T10:07:56.847Z,15.20
2019-04-16T10:10:31.317Z,15.30
2019-04-16T10:13:08.771Z,15.40
2019-04-16T10:15:46.262Z,15.60
2019-04-16T10:18:23.748Z,15.70
2019-04-16T10:21:01.268Z,15.70
2019-04-16T10:23:57.371Z,15.80
2019-04-16T10:26:34.868Z,15.90
2019-04-16T10:29:15.644Z,16.10
2019-04-16T10:31:53.422Z,16.20
2019-04-16T10:34:30.900Z,16.30
2019-04-16T10:37:08.494Z,16.30
2019-04-16T10:40:05.039Z,16.40
2019-04-16T10:43:00.746Z,16.50
2019-04-16T10:46:03.912Z,16.60
2019-04-16T10:49:00.052Z,16.80
2019-04-16T10:52:05.982Z,17.00
2019-04-16T10:55:09.392Z,17.10
2019-04-16T10:58:01.850Z,17.40
2019-04-16T11:01:00.877Z,17.40
2019-04-16T11:03:47.433Z,17.60
2019-04-16T11:06:37.003Z,17.70
2019-04-16T11:09:14.484Z,17.90
2019-04-16T11:11:51.998Z,18.10
2019-04-16T11:14:29.493Z,18.70
2019-04-16T11:17:06.976Z,19.30
2019-04-16T11:19:44.497Z,19.60
2019-04-16T11:22:21.983Z,19.90
2019-04-16T11:24:59.467Z,20.50
2019-04-16T11:27:36.978Z,21.40
2019-04-16T11:30:23.533Z,22.80
2019-04-16T11:33:01.480Z,24.50
2019-04-16T11:35:38.960Z,26.50
2019-04-16T11:38:17.635Z,28.00
2019-04-16T11:40:53.903Z,29.20
2019-04-16T11:43:31.417Z,29.90
2019-04-16T11:46:08.897Z,30.70
2019-04-16T11:48:50.009Z,31.10
2019-04-16T11:51:23.877Z,31.20
2019-04-16T11:54:01.476Z,30.90
2019-04-16T11:56:38.928Z,30.30
2019-04-16T11:59:16.482Z,29.70
2019-04-16T12:02:04.711Z,29.60
2019-04-16T12:05:07.287Z,30.20
2019-04-16T12:08:03.372Z,31.40
2019-04-16T12:11:18.667Z,33.00
2019-04-16T12:14:28.648Z,34.40
2019-04-16T12:16:59.869Z,35.40
2019-04-16T12:20:09.201Z,36.10
2019-04-16T12:23:08.544Z,36.80
2019-04-16T12:26:04.677Z,37.40
2019-04-16T12:29:00.893Z,37.90
2019-04-16T12:31:56.709Z,37.60
2019-04-16T12:34:52.849Z,38.10
2019-04-16T12:37:38.342Z,38.50
2019-04-16T12:40:34.397Z,38.20
2019-04-16T12:43:25.909Z,38.50
2019-04-16T12:46:22.026Z,38.70
2019-04-16T12:49:18.103Z,38.60
2019-04-16T12:52:16.932Z,37.90
2019-04-16T12:55:13.227Z,37.50
2019-04-16T12:58:20.217Z,37.00
2019-04-16T13:01:19.721Z,36.30
2019-04-16T13:04:02.433Z,35.90
2019-04-16T13:06:42.772Z,36.00
2019-04-16T13:09:38.909Z,36.50
2019-04-16T13:12:35.039Z,37.30
2019-04-16T13:15:26.162Z,37.90
2019-04-16T13:18:11.410Z,38.80
2019-04-16T13:21:03.945Z,39.70
2019-04-16T13:23:51.315Z,40.30
2019-04-16T13:26:42.442Z,41.00
2019-04-16T13:29:22.689Z,41.60
2019-04-16T13:32:00.161Z,41.80
2019-04-16T13:34:37.623Z,41.90
2019-04-16T13:37:15.150Z,42.10
2019-04-16T13:40:00.444Z,42.40
2019-04-16T13:42:37.090Z,42.70
2019-04-16T13:45:33.013Z,42.70
2019-04-16T13:48:27.281Z,42.30
2019-04-16T13:51:04.795Z,42.20
2019-04-16T13:53:54.233Z,42.30
2019-04-16T13:56:35.950Z,42.70
2019-04-16T13:59:30.240Z,42.70
2019-04-16T14:02:11.209Z,42.90
2019-04-16T14:04:48.689Z,43.10
2019-04-16T14:07:26.214Z,43.10
2019-04-16T14:10:03.709Z,42.80
2019-04-16T14:12:42.683Z,42.70
2019-04-16T14:15:31.063Z,42.80
2019-04-16T14:17:59.075Z,43.00
2019-04-16T14:20:33.669Z,43.10
2019-04-16T14:23:11.375Z,43.50
2019-04-16T14:25:48.676Z,43.50
2019-04-16T14:28:26.177Z,43.30
2019-04-16T14:31:03.860Z,43.00
2019-04-16T14:34:06.453Z,42.90
2019-04-16T14:36:43.975Z,43.10
2019-04-16T14:39:31.177Z,43.50
2019-04-16T14:42:08.704Z,43.60
2019-04-16T14:44:49.865Z,43.70
2019-04-16T14:47:29.878Z,43.80
2019-04-16T14:50:04.860Z,43.90
2019-04-16T14:52:42.656Z,44.00
2019-04-16T14:55:32.617Z,43.80
2019-04-16T14:58:37.573Z,43.60
2019-04-16T15:01:36.881Z,43.40
2019-04-16T15:04:43.243Z,42.80
2019-04-16T15:07:54.849Z,42.20
2019-04-16T15:11:04.065Z,41.80
2019-04-16T15:14:06.107Z,41.40
2019-04-16T15:16:50.787Z,41.00
2019-04-16T15:19:36.050Z,40.80
2019-04-16T15:22:45.455Z,40.50
2019-04-16T15:25:35.485Z,40.20
2019-04-16T15:28:21.090Z,40.00
2019-04-16T15:31:06.850Z,39.60
2019-04-16T15:33:50.708Z,39.60
2019-04-16T15:36:35.149Z,39.60
2019-04-16T15:39:16.131Z,39.50
2019-04-16T15:42:22.495Z,39.50
2019-04-16T15:45:21.144Z,39.50
2019-04-16T15:48:23.909Z,39.20
2019-04-16T15:51:18.749Z,39.20
2019-04-16T15:54:14.903Z,39.20
2019-04-16T15:57:11.017Z,39.10
2019-04-16T16:00:07.169Z,39.20
2019-04-16T16:03:03.491Z,38.80
2019-04-16T16:05:49.247Z,38.50
2019-04-16T16:08:41.029Z,38.40
2019-04-16T16:11:21.023Z,38.30
2019-04-16T16:14:00.369Z,38.20
2019-04-16T16:16:42.065Z,38.30
2019-04-16T16:19:13.437Z,38.20
2019-04-16T16:21:50.948Z,38.10
2019-04-16T16:24:28.473Z,37.90
2019-04-16T16:27:06.009Z,37.50
2019-04-16T16:29:43.489Z,37.30
2019-04-16T16:32:21.013Z,37.20
2019-04-16T16:34:58.511Z,37.20
2019-04-16T16:37:36.925Z,37.20
2019-04-16T16:40:15.290Z,37.10
2019-04-16T16:42:50.999Z,37.00
2019-04-16T16:45:43.899Z,36.70
2019-04-16T16:48:22.082Z,36.10
2019-04-16T16:50:58.956Z,35.50
2019-04-16T16:53:45.998Z,35.30
2019-04-16T16:56:42.396Z,35.00
2019-04-16T16:59:42.865Z,34.70
2019-04-16T17:02:45.092Z,34.40
2019-04-16T17:05:32.047Z,33.90
2019-04-16T17:08:09.532Z,33.50
2019-04-16T17:10:47.189Z,33.00
2019-04-16T17:13:24.621Z,32.40
2019-04-16T17:16:02.127Z,32.10
2019-04-16T17:18:39.650Z,31.50
2019-04-16T17:21:17.177Z,31.00
2019-04-16T17:23:54.687Z,30.40
2019-04-16T17:26:32.192Z,29.80
2019-04-16T17:29:09.713Z,29.20
2019-04-16T17:31:47.359Z,28.70
2019-04-16T17:34:24.847Z,28.10
2019-04-16T17:37:02.352Z,27.60
2019-04-16T17:39:43.551Z,26.90
2019-04-16T17:42:22.223Z,26.40
2019-04-16T17:45:18.293Z,25.80
2019-04-16T17:48:02.795Z,25.10
2019-04-16T17:51:04.798Z,24.30
2019-04-16T17:53:59.892Z,23.50
2019-04-16T17:57:08.877Z,22.70
2019-04-16T17:59:53.816Z,21.70
2019-04-16T18:02:49.977Z,20.70
2019-04-16T18:05:35.121Z,19.80
2019-04-16T18:08:25.001Z,18.90
2019-04-16T18:11:20.653Z,18.20
2019-04-16T18:14:10.753Z,17.60
2019-04-16T18:17:02.201Z,17.10
2019-04-16T18:19:58.784Z,16.60
2019-04-16T18:22:58.727Z,16.10
2019-04-16T18:25:57.947Z,15.70
2019-04-16T18:28:39.935Z,15.40
2019-04-16T18:31:36.189Z,15.00
2019-04-16T18:34:35.393Z,14.80
2019-04-16T18:37:48.749Z,14.50
2019-04-16T18:40:47.410Z,14.20
2019-04-16T18:43:46.392Z,14.00
2019-04-16T18:46:49.225Z,13.80
2019-04-16T18:49:26.750Z,13.60
2019-04-16T18:52:05.352Z,13.40
2019-04-16T18:54:41.954Z,13.20
2019-04-16T18:57:19.757Z,13.10
2019-04-16T18:59:57.392Z,12.90
2019-04-16T19:02:35.131Z,12.80
2019-04-16T19:05:12.732Z,12.70
2019-04-16T19:07:50.421Z,12.60
2019-04-16T19:10:28.057Z,12.50
2019-04-16T19:13:10.046Z,12.40
2019-04-16T19:15:43.445Z,12.30
2019-04-16T19:18:21.046Z,12.20
2019-04-16T19:20:58.573Z,12.10
2019-04-16T19:23:36.164Z,12.10
2019-04-16T19:26:13.753Z,12.00
2019-04-16T19:28:51.448Z,11.90
2019-04-16T19:31:29.102Z,11.80
2019-04-16T19:34:10.167Z,11.70
2019-04-16T19:36:44.367Z,11.70
2019-04-16T19:39:21.936Z,11.60
2019-04-16T19:41:59.560Z,11.50
2019-04-16T19:44:39.972Z,11.50
2019-04-16T19:47:14.680Z,11.40
2019-04-16T19:49:52.158Z,11.30
2019-04-16T19:52:29.669Z,11.20
2019-04-16T19:55:12.261Z,11.20
2019-04-16T19:57:45.958Z,11.20
2019-04-16T20:00:23.476Z,11.10
2019-04-16T20:03:00.985Z,11.00
2019-04-16T20:05:38.483Z,10.90
2019-04-16T20:08:15.995Z,10.90
2019-04-16T20:10:53.618Z,10.80
2019-04-16T20:13:30.997Z,10.70
2019-04-16T20:16:08.478Z,10.70
2019-04-16T20:18:51.274Z,10.60
2019-04-16T20:21:23.704Z,10.50
2019-04-16T20:24:01.237Z,10.40
2019-04-16T20:26:38.724Z,10.40
2019-04-16T20:29:16.236Z,10.30
2019-04-16T20:31:53.717Z,10.20
2019-04-16T20:34:31.216Z,10.10
2019-04-16T20:37:08.733Z,10.10
2019-04-16T20:39:46.217Z,10.00
2019-04-16T20:42:23.721Z,9.90
2019-04-16T20:45:01.202Z,9.90
2019-04-16T20:47:39.981Z,9.80
2019-04-16T20:50:20.569Z,9.70
2019-04-16T20:52:53.761Z,9.70
2019-04-16T20:55:31.229Z,9.60
2019-04-16T20:58:08.725Z,9.60
2019-04-16T21:00:47.669Z,9.60
2019-04-16T21:03:25.183Z,9.50
2019-04-16T21:06:07.177Z,9.50
2019-04-16T21:08:40.184Z,9.50
2019-04-16T21:11:17.704Z,9.50
2019-04-16T21:13:55.205Z,9.40
2019-04-16T21:16:33.752Z,9.40
2019-04-16T21:19:22.113Z,9.40
2019-04-16T21:21:47.673Z,9.40
2019-04-16T21:24:25.170Z,9.30
2019-04-16T21:27:02.990Z,9.30
2019-04-16T21:29:40.153Z,9.20
2019-04-16T21:32:37.051Z,9.20
2019-04-16T21:35:21.888Z,9.20
2019-04-16T21:38:17.453Z,9.10
2019-04-16T21:40:56.325Z,9.10
2019-04-16T21:43:32.498Z,9.10
2019-04-16T21:46:09.920Z,9.10
2019-04-16T21:48:47.420Z,9.10
2019-04-16T21:51:24.898Z,9.00
2019-04-16T21:54:02.416Z,9.10
2019-04-16T21:56:40.365Z,9.00
2019-04-16T21:59:21.117Z,9.00
2019-04-16T22:01:55.133Z,9.00
2019-04-16T22:04:32.416Z,8.90
2019-04-16T22:07:09.902Z,8.90
2019-04-16T22:09:47.431Z,8.80
2019-04-16T22:12:24.914Z,8.80
2019-04-16T22:15:02.437Z,8.80
2019-04-16T22:17:39.942Z,8.80
2019-04-16T22:20:17.457Z,8.70
2019-04-16T22:22:54.933Z,8.70
2019-04-16T22:25:32.441Z,8.70
2019-04-16T22:28:12.791Z,8.70
2019-04-16T22:30:51.217Z,8.60
2019-04-16T22:33:24.908Z,8.60
2019-04-16T22:36:02.421Z,8.60
2019-04-16T22:38:40.118Z,8.50
2019-04-16T22:41:31.258Z,8.50
2019-04-16T22:44:27.369Z,8.50
2019-04-16T22:47:09.654Z,8.50
2019-04-16T22:49:47.152Z,8.40
2019-04-16T22:52:24.622Z,8.40
2019-04-16T22:55:02.547Z,8.40
2019-04-16T22:57:39.629Z,8.40
2019-04-16T23:00:26.353Z,8.30
2019-04-16T23:03:03.841Z,8.30
2019-04-16T23:05:41.342Z,8.20
2019-04-16T23:08:18.830Z,8.00
2019-04-16T23:10:56.406Z,7.70
2019-04-16T23:13:33.813Z,7.50
2019-04-16T23:16:11.322Z,7.30
2019-04-16T23:18:49.976Z,7.00
2019-04-16T23:21:26.302Z,6.80
2019-04-16T23:24:03.776Z,6.60
2019-04-16T23:26:41.277Z,6.50
2019-04-16T23:29:18.765Z,6.30
2019-04-16T23:31:57.298Z,6.20
2019-04-16T23:34:34.866Z,6.20
2019-04-16T23:37:12.093Z,6.10
2019-04-16T23:39:49.592Z,6.00
2019-04-16T23:42:27.084Z,5.90
2019-04-16T23:45:23.109Z,5.80
2019-04-16T23:48:19.226Z,5.70
2019-04-16T23:51:04.452Z,5.50
2019-04-16T23:53:55.659Z,5.40
2019-04-16T23:56:41.012Z,5.30
2019-04-16T23:59:40.118Z,5.20
